Time;durP1;ratioP1;P1;durP2;ratioP2;P2;SDS_P1;SDS_P2;PMS_P1;PMS_P2;Temp;Humidity;BMP_temperature;BMP_pressure;BME280_temperature;BME280_humidity;BME280_pressure;Samples;Min_cycle;Max_cycle;Signal;HPM_P1;HPM_P2
2023/06/06 00:00:46;;;;;;;12.23;6.05;;;13.00;99.90;;;;;;5070749;28;20620;-66
2023/06/06 00:03:12;;;;;;;11.63;6.43;;;12.90;99.90;;;;;;5070751;28;20589;-67
2023/06/06 00:05:38;;;;;;;9.98;6.28;;;12.90;99.90;;;;;;5070602;28;20735;-65
2023/06/06 00:08:05;;;;;;;15.15;6.30;;;12.90;99.90;;;;;;5059662;28;20260;-66
2023/06/06 00:10:31;;;;;;;9.85;6.03;;;12.80;99.90;;;;;;5051008;28;20197;-66
2023/06/06 00:12:56;;;;;;;10.07;5.63;;;12.80;99.90;;;;;;5050979;28;20168;-65
2023/06/06 00:15:22;;;;;;;10.70;5.97;;;12.80;99.90;;;;;;5050920;28;20177;-65
2023/06/06 00:17:48;;;;;;;12.18;6.15;;;12.80;99.90;;;;;;5050763;28;20296;-66
2023/06/06 00:20:14;;;;;;;12.80;5.85;;;12.80;99.90;;;;;;5065987;28;20259;-66
2023/06/06 00:22:41;;;;;;;11.45;5.40;;;12.70;99.90;;;;;;5053954;28;20172;-67
2023/06/06 00:25:07;;;;;;;13.70;5.88;;;12.80;99.90;;;;;;5053610;28;20181;-67
2023/06/06 00:27:34;;;;;;;12.70;5.20;;;12.70;99.90;;;;;;5062335;28;20218;-66
2023/06/06 00:29:59;;;;;;;12.07;5.80;;;12.60;99.90;;;;;;5074427;28;20172;-66
2023/06/06 00:32:26;;;;;;;10.03;5.67;;;12.60;99.90;;;;;;5074296;28;20183;-68
2023/06/06 00:34:52;;;;;;;14.63;5.57;;;12.60;99.90;;;;;;5074496;28;20220;-68
2023/06/06 00:37:18;;;;;;;16.08;6.13;;;12.60;99.90;;;;;;5074371;28;20646;-68
2023/06/06 00:39:43;;;;;;;11.98;5.80;;;12.50;99.90;;;;;;5056313;28;20180;-69
2023/06/06 00:42:09;;;;;;;9.00;5.93;;;12.60;99.90;;;;;;5074220;28;20225;-69
2023/06/06 00:44:34;;;;;;;9.83;5.53;;;12.50;99.90;;;;;;5074186;28;20185;-60
2023/06/06 00:47:02;;;;;;;12.15;6.28;;;12.60;99.90;;;;;;5073956;28;20208;-63
2023/06/06 00:49:27;;;;;;;12.37;5.53;;;12.50;99.90;;;;;;5074013;28;20229;-66
2023/06/06 00:51:54;;;;;;;11.03;5.53;;;12.50;99.90;;;;;;5074129;28;20176;-66
2023/06/06 00:54:20;;;;;;;12.57;6.17;;;12.40;99.90;;;;;;5074009;28;20168;-64
2023/06/06 00:56:47;;;;;;;16.70;5.40;;;12.50;99.90;;;;;;5073988;28;20195;-64
2023/06/06 00:59:13;;;;;;;12.13;5.50;;;12.40;99.90;;;;;;5074104;28;20589;-65
2023/06/06 01:01:41;;;;;;;15.50;6.50;;;12.40;99.90;;;;;;5073896;28;20186;-64
2023/06/06 01:04:07;;;;;;;9.03;5.63;;;12.30;99.90;;;;;;5073862;28;20251;-64
2023/06/06 01:06:34;;;;;;;8.57;5.53;;;12.30;99.90;;;;;;5073756;28;20214;-64
2023/06/06 01:09:04;;;;;;;8.73;5.20;;;12.30;99.90;;;;;;5073763;28;20233;-63
2023/06/06 01:11:40;;;;;;;11.57;5.90;;;12.20;99.90;;;;;;5073725;28;20655;-64
2023/06/06 01:14:33;;;;;;;13.60;5.60;;;12.30;99.90;;;;;;5072295;28;20172;-64
2023/06/06 01:17:02;;;;;;;9.87;5.63;;;12.20;99.90;;;;;;5073923;28;20172;-67
2023/06/06 01:19:32;;;;;;;13.02;5.72;;;12.30;99.90;;;;;;5073646;28;20259;-66
2023/06/06 01:21:58;;;;;;;9.17;5.30;;;12.30;99.90;;;;;;5055341;28;20181;-65
2023/06/06 01:24:24;;;;;;;11.43;5.70;;;12.40;99.90;;;;;;5056585;28;20177;-65
2023/06/06 01:26:51;;;;;;;9.67;5.17;;;12.30;99.90;;;;;;5072740;28;20235;-65
2023/06/06 01:29:17;;;;;;;18.40;5.97;;;12.30;99.90;;;;;;5053895;28;20177;-65
2023/06/06 01:31:49;;;;;;;10.85;5.53;;;12.40;99.90;;;;;;5057032;28;20227;-65
2023/06/06 01:34:35;;;;;;;14.70;5.83;;;12.40;99.90;;;;;;5059228;28;20441;-66
2023/06/06 01:37:19;;;;;;;10.13;5.30;;;12.50;99.90;;;;;;5052327;28;20671;-65
2023/06/06 01:39:48;;;;;;;10.47;5.60;;;12.40;99.90;;;;;;5058545;28;20179;-65
2023/06/06 01:42:16;;;;;;;12.57;5.80;;;12.60;99.90;;;;;;5056977;28;20177;-65
2023/06/06 01:44:43;;;;;;;12.00;5.73;;;12.70;99.90;;;;;;5069799;28;20631;-66
2023/06/06 01:47:10;;;;;;;11.30;5.47;;;12.60;99.90;;;;;;5072870;28;20277;-65
2023/06/06 01:49:36;;;;;;;11.97;5.83;;;12.70;99.90;;;;;;5055073;28;20172;-64
2023/06/06 01:52:02;;;;;;;14.00;5.70;;;12.70;99.90;;;;;;5057121;28;20173;-65
2023/06/06 01:54:28;;;;;;;10.98;5.80;;;12.70;99.90;;;;;;5052883;28;20173;-65
2023/06/06 01:56:54;;;;;;;11.80;5.90;;;12.70;99.90;;;;;;5052751;28;20176;-64
2023/06/06 01:59:20;;;;;;;10.40;5.77;;;12.70;99.90;;;;;;5056272;28;20639;-64
2023/06/06 02:01:46;;;;;;;15.18;6.20;;;12.80;99.90;;;;;;5054833;28;20187;-65
2023/06/06 02:04:11;;;;;;;12.05;6.30;;;12.80;99.90;;;;;;5072869;28;20639;-63
2023/06/06 02:06:37;;;;;;;10.85;5.57;;;;;;;;;;5072695;28;20212;-64
2023/06/06 02:09:03;;;;;;;12.27;6.35;;;12.80;99.90;;;;;;5072716;28;20177;-63
2023/06/06 02:11:29;;;;;;;15.07;6.25;;;12.80;99.90;;;;;;5072625;28;20631;-63
2023/06/06 02:13:57;;;;;;;9.45;5.38;;;12.80;99.90;;;;;;5072483;28;20165;-62
2023/06/06 02:16:23;;;;;;;15.20;5.60;;;12.80;99.90;;;;;;5072374;28;20187;-64
2023/06/06 02:18:49;;;;;;;10.50;5.28;;;12.90;99.90;;;;;;5072569;28;20176;-63
2023/06/06 02:21:15;;;;;;;9.07;5.32;;;12.90;99.90;;;;;;5072420;28;20169;-63
2023/06/06 02:23:41;;;;;;;12.68;5.30;;;12.90;99.90;;;;;;5072340;28;20165;-64
2023/06/06 02:26:06;;;;;;;11.25;5.25;;;12.90;99.90;;;;;;5072269;28;20697;-65
2023/06/06 02:28:32;;;;;;;8.63;5.65;;;13.00;99.90;;;;;;5056664;28;20607;-64
2023/06/06 02:30:58;;;;;;;9.13;5.47;;;13.00;99.90;;;;;;5052232;28;20169;-64
2023/06/06 02:33:23;;;;;;;12.65;5.40;;;13.00;99.90;;;;;;5052290;28;20175;-65
2023/06/06 02:35:50;;;;;;;10.53;5.03;;;13.00;99.90;;;;;;5052237;28;20220;-64
2023/06/06 02:38:15;;;;;;;9.90;5.00;;;13.00;99.90;;;;;;5052990;28;20189;-64
2023/06/06 02:40:41;;;;;;;9.90;5.25;;;12.90;99.90;;;;;;5051947;28;20227;-65
2023/06/06 02:43:06;;;;;;;11.60;4.65;;;12.90;99.90;;;;;;5052091;28;20189;-65
2023/06/06 02:45:32;;;;;;;9.55;4.95;;;12.90;99.90;;;;;;5052683;28;20648;-65
2023/06/06 02:47:58;;;;;;;7.13;4.38;;;12.90;99.90;;;;;;5052921;28;20196;-64
2023/06/06 02:50:24;;;;;;;11.10;4.32;;;;;;;;;;5053256;28;20623;-63
2023/06/06 02:52:51;;;;;;;7.35;4.10;;;13.10;99.90;;;;;;5052271;28;20181;-64
2023/06/06 02:55:17;;;;;;;13.13;4.65;;;13.00;99.90;;;;;;5067096;28;20184;-64
2023/06/06 02:57:43;;;;;;;9.98;4.95;;;;;;;;;;5052262;28;20287;-64
2023/06/06 03:00:10;;;;;;;10.68;4.45;;;12.90;99.90;;;;;;5051677;28;20184;-63
2023/06/06 03:02:36;;;;;;;10.23;4.13;;;13.00;99.90;;;;;;5055810;28;20177;-63
2023/06/06 03:05:03;;;;;;;12.48;4.25;;;13.00;99.90;;;;;;5069196;28;20751;-65
2023/06/06 03:07:28;;;;;;;10.70;4.35;;;13.00;99.90;;;;;;5051783;28;20212;-66
2023/06/06 03:09:54;;;;;;;11.68;4.53;;;13.00;99.90;;;;;;5033774;28;20312;-66
2023/06/06 03:12:20;;;;;;;10.33;4.07;;;12.90;99.90;;;;;;5051546;28;20181;-66
2023/06/06 03:14:46;;;;;;;9.50;4.00;;;12.90;99.90;;;;;;5051842;28;20177;-66
2023/06/06 03:17:11;;;;;;;9.10;4.32;;;12.90;99.90;;;;;;5052071;28;20188;-64
2023/06/06 03:19:37;;;;;;;11.00;4.53;;;13.00;99.90;;;;;;5051543;28;20180;-64
2023/06/06 03:22:03;;;;;;;9.23;3.85;;;12.90;99.90;;;;;;5051443;28;20185;-65
2023/06/06 03:24:29;;;;;;;9.27;3.83;;;12.90;99.90;;;;;;5051400;28;20530;-64
2023/06/06 03:26:55;;;;;;;14.18;3.72;;;12.90;99.90;;;;;;5066411;28;20223;-64
2023/06/06 03:29:21;;;;;;;11.25;3.58;;;12.80;99.90;;;;;;5050941;28;20177;-63
2023/06/06 03:31:50;;;;;;;11.50;3.60;;;;;;;;;;5055039;28;20181;-63
2023/06/06 03:34:16;;;;;;;8.02;3.72;;;12.90;99.90;;;;;;5051019;28;20201;-64
2023/06/06 03:36:41;;;;;;;6.93;3.28;;;12.90;99.90;;;;;;5051881;28;20228;-63
2023/06/06 03:39:07;;;;;;;11.32;3.90;;;12.90;99.90;;;;;;5050990;28;20519;-64
2023/06/06 03:41:32;;;;;;;8.63;3.77;;;12.90;99.90;;;;;;5050939;28;20181;-65
2023/06/06 03:44:01;;;;;;;8.53;3.53;;;12.90;99.90;;;;;;5054594;28;20214;-65
2023/06/06 03:46:26;;;;;;;12.27;3.83;;;13.00;99.90;;;;;;5065305;28;20267;-65
2023/06/06 03:48:52;;;;;;;11.18;3.80;;;12.90;99.90;;;;;;5071046;28;20167;-65
2023/06/06 03:51:18;;;;;;;7.50;3.35;;;13.00;99.90;;;;;;5070936;28;20259;-65
2023/06/06 03:53:43;;;;;;;11.20;4.22;;;12.90;99.90;;;;;;5070914;28;20251;-64
2023/06/06 03:56:09;;;;;;;11.30;3.58;;;13.00;99.90;;;;;;5070753;28;20645;-64
2023/06/06 03:58:36;;;;;;;7.13;3.67;;;12.90;99.90;;;;;;5070502;28;20193;-67
2023/06/06 04:01:03;;;;;;;8.85;4.20;;;13.00;99.90;;;;;;5070754;28;20226;-67
2023/06/06 04:03:36;;;;;;;8.13;3.78;;;13.00;99.90;;;;;;5070854;28;20176;-66
2023/06/06 04:06:05;;;;;;;9.10;3.60;;;12.90;99.90;;;;;;5070761;28;20200;-66
2023/06/06 04:08:32;;;;;;;14.88;4.18;;;13.00;99.90;;;;;;5071113;28;20200;-67
2023/06/06 04:10:57;;;;;;;8.63;3.85;;;12.90;99.90;;;;;;5070999;28;20172;-67
2023/06/06 04:13:23;;;;;;;9.00;3.38;;;12.90;99.90;;;;;;5071021;28;20662;-67
2023/06/06 04:15:49;;;;;;;11.07;4.88;;;12.90;99.90;;;;;;5070750;28;20263;-65
2023/06/06 04:18:15;;;;;;;9.15;3.90;;;12.90;99.90;;;;;;5070491;28;20172;-62
2023/06/06 04:20:43;;;;;;;9.73;3.92;;;12.90;99.90;;;;;;5070622;28;20181;-62
2023/06/06 04:23:09;;;;;;;9.75;3.92;;;13.00;99.90;;;;;;5069200;28;20176;-66
2023/06/06 04:25:34;;;;;;;12.10;3.78;;;13.00;99.90;;;;;;5070381;28;20494;-66
2023/06/06 04:28:00;;;;;;;6.45;3.65;;;13.10;99.90;;;;;;5070510;28;20175;-64
2023/06/06 04:30:29;;;;;;;9.75;4.03;;;12.90;99.90;;;;;;5070572;28;20172;-66
2023/06/06 04:32:56;;;;;;;8.18;4.10;;;13.00;99.90;;;;;;5069134;28;20568;-66
2023/06/06 04:35:22;;;;;;;11.50;4.03;;;13.00;99.90;;;;;;5070265;28;20220;-65
2023/06/06 04:37:50;;;;;;;11.75;3.90;;;13.00;99.90;;;;;;5067728;28;20193;-66
2023/06/06 04:40:16;;;;;;;11.35;3.97;;;12.90;99.90;;;;;;5051795;28;20186;-64
2023/06/06 04:42:41;;;;;;;12.30;4.05;;;12.80;99.90;;;;;;5060110;28;20640;-64
2023/06/06 04:45:08;;;;;;;12.98;3.72;;;12.90;99.90;;;;;;5050824;28;20235;-64
2023/06/06 04:47:40;;;;;;;8.63;4.07;;;12.80;99.90;;;;;;5044823;28;20212;-64
2023/06/06 04:50:07;;;;;;;6.18;3.65;;;12.90;99.90;;;;;;5063906;28;20185;-64
2023/06/06 04:52:34;;;;;;;9.60;4.00;;;12.90;99.90;;;;;;5063476;28;20264;-65
2023/06/06 04:55:03;;;;;;;13.03;3.80;;;13.00;99.90;;;;;;5070124;28;20643;-64
2023/06/06 04:57:29;;;;;;;7.80;3.55;;;12.90;99.90;;;;;;5070165;28;20172;-65
2023/06/06 04:59:56;;;;;;;10.32;4.10;;;12.90;99.90;;;;;;5052178;28;20184;-65
2023/06/06 05:02:26;;;;;;;6.43;3.72;;;12.90;99.90;;;;;;5050384;28;20170;-67
2023/06/06 05:04:53;;;;;;;9.00;3.85;;;12.90;99.90;;;;;;5050412;28;20188;-64
2023/06/06 05:07:23;;;;;;;9.10;3.47;;;12.90;99.90;;;;;;5051580;28;20243;-65
2023/06/06 05:09:48;;;;;;;13.75;4.13;;;13.00;99.90;;;;;;5070263;28;20298;-65
2023/06/06 05:12:14;;;;;;;10.93;3.60;;;12.90;99.90;;;;;;5072567;28;20263;-65
2023/06/06 05:14:40;;;;;;;11.73;3.67;;;12.90;99.90;;;;;;5073623;28;20714;-65
2023/06/06 05:17:05;;;;;;;12.70;3.88;;;12.90;99.90;;;;;;5073511;28;20180;-66
2023/06/06 05:19:31;;;;;;;8.85;3.78;;;12.80;99.90;;;;;;5073728;28;20527;-66
2023/06/06 05:21:57;;;;;;;10.20;3.70;;;12.90;99.90;;;;;;5073642;28;20169;-66
2023/06/06 05:24:22;;;;;;;12.68;3.95;;;12.90;99.90;;;;;;5073713;28;20176;-66
2023/06/06 05:26:48;;;;;;;8.90;3.40;;;12.80;99.90;;;;;;5073586;28;20220;-66
2023/06/06 05:29:14;;;;;;;8.43;3.55;;;12.80;99.90;;;;;;5073444;28;20268;-66
2023/06/06 05:31:39;;;;;;;8.23;3.87;;;12.80;99.90;;;;;;5073249;28;20180;-66
2023/06/06 05:34:05;;;;;;;13.68;4.05;;;12.80;99.90;;;;;;5073086;28;20203;-66
2023/06/06 05:36:31;;;;;;;8.13;3.67;;;12.80;99.90;;;;;;5054417;28;20216;-65
2023/06/06 05:38:56;;;;;;;10.18;3.95;;;12.90;99.90;;;;;;5053262;28;20180;-67
2023/06/06 05:41:23;;;;;;;8.73;3.70;;;12.90;99.90;;;;;;5053297;28;20189;-67
2023/06/06 05:43:50;;;;;;;8.55;3.47;;;12.90;99.90;;;;;;5052910;28;20196;-67
2023/06/06 05:46:16;;;;;;;10.25;3.85;;;12.90;99.90;;;;;;5053013;28;20219;-65
2023/06/06 05:48:41;;;;;;;10.27;3.63;;;12.90;99.90;;;;;;5053103;28;20166;-65
2023/06/06 05:51:07;;;;;;;13.73;3.77;;;12.90;99.90;;;;;;5052899;28;20675;-65
2023/06/06 05:53:33;;;;;;;8.77;3.78;;;12.90;99.90;;;;;;5053950;28;20592;-66
2023/06/06 05:55:59;;;;;;;11.65;4.15;;;;;;;;;;5061536;28;20180;-65
2023/06/06 05:58:25;;;;;;;9.53;4.17;;;13.00;99.90;;;;;;5066097;28;20191;-66
2023/06/06 06:00:51;;;;;;;7.18;3.55;;;13.10;99.90;;;;;;5054596;28;20589;-64
2023/06/06 06:03:16;;;;;;;11.75;3.78;;;13.00;99.90;;;;;;5059803;28;20177;-65
2023/06/06 06:05:42;;;;;;;12.68;3.80;;;13.10;99.90;;;;;;5072540;28;20188;-66
2023/06/06 06:08:08;;;;;;;7.82;3.65;;;13.20;99.90;;;;;;5072749;28;20184;-66
2023/06/06 06:10:35;;;;;;;6.72;3.45;;;12.90;99.90;;;;;;5072934;28;20619;-66
2023/06/06 06:13:02;;;;;;;5.70;3.23;;;13.10;99.90;;;;;;5072546;28;20175;-65
2023/06/06 06:15:30;;;;;;;8.13;3.65;;;13.00;99.90;;;;;;5072388;28;20180;-63
2023/06/06 06:17:56;;;;;;;7.88;3.83;;;13.10;99.90;;;;;;5072260;28;20654;-62
2023/06/06 06:20:21;;;;;;;7.95;3.97;;;13.00;99.90;;;;;;5072129;28;20237;-64
2023/06/06 06:22:48;;;;;;;11.75;3.97;;;13.20;99.90;;;;;;5070673;28;20188;-64
2023/06/06 06:25:14;;;;;;;7.72;3.50;;;13.20;99.90;;;;;;5072207;28;20176;-64
2023/06/06 06:27:40;;;;;;;9.35;3.60;;;13.10;99.90;;;;;;5071934;28;20200;-64
2023/06/06 06:30:08;;;;;;;10.52;3.70;;;13.10;99.90;;;;;;5072270;28;20171;-64
2023/06/06 06:32:35;;;;;;;10.63;3.70;;;13.20;99.90;;;;;;5072328;28;20180;-64
2023/06/06 06:35:02;;;;;;;9.65;3.60;;;13.20;99.90;;;;;;5071827;28;20755;-63
2023/06/06 06:37:31;;;;;;;7.87;3.70;;;13.30;99.90;;;;;;5072258;28;20255;-63
2023/06/06 06:39:57;;;;;;;8.35;3.90;;;13.40;99.90;;;;;;5070449;28;20548;-63
2023/06/06 06:42:23;;;;;;;8.18;3.47;;;13.40;99.90;;;;;;5070609;28;20191;-63
2023/06/06 06:44:50;;;;;;;12.13;4.30;;;13.40;99.90;;;;;;5070578;28;20706;-61
2023/06/06 06:47:16;;;;;;;8.00;3.45;;;13.30;99.90;;;;;;5071893;28;20592;-62
2023/06/06 06:49:42;;;;;;;7.03;3.50;;;13.20;99.90;;;;;;5071804;28;20175;-61
2023/06/06 06:52:11;;;;;;;7.78;3.45;;;13.10;99.90;;;;;;5072037;28;20180;-61
2023/06/06 06:54:46;;;;;;;6.75;3.70;;;13.20;99.90;;;;;;5071658;28;20180;-61
2023/06/06 06:57:12;;;;;;;7.53;3.83;;;13.20;99.90;;;;;;5051183;28;20187;-61
2023/06/06 06:59:38;;;;;;;7.55;3.67;;;13.30;99.90;;;;;;5051786;28;20196;-61
2023/06/06 07:02:05;;;;;;;8.32;3.50;;;13.50;99.90;;;;;;5051460;28;20180;-62
2023/06/06 07:04:31;;;;;;;11.30;3.50;;;13.40;99.90;;;;;;5051598;28;20532;-61
2023/06/06 07:06:57;;;;;;;8.73;3.45;;;13.40;99.90;;;;;;5051321;28;20211;-61
2023/06/06 07:09:22;;;;;;;9.98;3.83;;;13.30;99.90;;;;;;5051444;28;20679;-61
2023/06/06 07:11:48;;;;;;;9.90;3.67;;;13.50;99.90;;;;;;5051240;28;20262;-61
2023/06/06 07:14:13;;;;;;;8.43;3.42;;;13.50;99.90;;;;;;5033489;28;20324;-62
2023/06/06 07:16:39;;;;;;;8.27;3.85;;;13.50;99.90;;;;;;5033389;28;20500;-61
2023/06/06 07:19:08;;;;;;;8.02;3.85;;;13.50;99.90;;;;;;5051327;28;20181;-61
2023/06/06 07:21:33;;;;;;;10.95;3.67;;;13.60;99.90;;;;;;5051198;28;20169;-61
2023/06/06 07:23:59;;;;;;;8.68;4.00;;;13.50;99.90;;;;;;5051095;28;20174;-63
2023/06/06 07:26:26;;;;;;;8.15;3.60;;;13.60;99.90;;;;;;5051063;28;20298;-63
2023/06/06 07:28:52;;;;;;;8.75;4.00;;;13.60;99.90;;;;;;5033190;28;20199;-63
2023/06/06 07:31:17;;;;;;;8.35;3.53;;;13.50;99.90;;;;;;5051038;28;20648;-64
2023/06/06 07:33:44;;;;;;;12.50;3.70;;;13.60;99.90;;;;;;5050309;28;20260;-65
2023/06/06 07:36:10;;;;;;;12.20;3.50;;;13.60;99.90;;;;;;5051064;28;20248;-66
2023/06/06 07:38:36;;;;;;;6.32;3.38;;;13.70;99.90;;;;;;5051551;28;20165;-66
2023/06/06 07:41:02;;;;;;;7.70;3.78;;;13.70;99.90;;;;;;5053951;28;20643;-68
2023/06/06 07:43:28;;;;;;;9.40;4.03;;;13.70;99.90;;;;;;5032922;28;20755;-67
2023/06/06 07:45:53;;;;;;;9.50;3.58;;;13.70;99.90;;;;;;5052015;28;20305;-67
2023/06/06 07:48:19;;;;;;;8.52;3.50;;;13.70;99.90;;;;;;5052838;28;20275;-66
2023/06/06 07:50:45;;;;;;;6.07;3.20;;;13.70;99.90;;;;;;5053224;28;20268;-69
2023/06/06 07:53:11;;;;;;;6.47;3.85;;;13.70;99.90;;;;;;5062107;28;20206;-68
2023/06/06 07:55:37;;;;;;;7.22;3.45;;;13.80;99.90;;;;;;5073055;28;20611;-69
2023/06/06 07:58:10;;;;;;;10.45;3.55;;;13.80;99.90;;;;;;5072928;28;20172;-69
2023/06/06 08:00:39;;;;;;;6.80;3.50;;;13.80;99.90;;;;;;5054733;28;20493;-70
2023/06/06 08:03:06;;;;;;;11.02;3.50;;;13.90;99.90;;;;;;5053767;28;20257;-71
2023/06/06 08:05:33;;;;;;;8.18;3.80;;;13.80;99.90;;;;;;5046993;28;20191;-70
2023/06/06 08:08:02;;;;;;;13.93;3.40;;;13.80;99.90;;;;;;5074658;28;20181;-70
2023/06/06 08:10:28;;;;;;;6.25;3.17;;;13.90;99.90;;;;;;5053146;28;20180;-71
2023/06/06 08:12:53;;;;;;;11.48;3.60;;;13.90;99.90;;;;;;5055254;28;20181;-71
2023/06/06 08:15:19;;;;;;;7.95;3.50;;;14.00;99.90;;;;;;5069674;28;20177;-70
2023/06/06 08:17:45;;;;;;;8.88;3.10;;;14.10;99.90;;;;;;5073990;28;20177;-72
2023/06/06 08:20:11;;;;;;;6.95;2.97;;;14.10;99.90;;;;;;5074840;28;20178;-70
2023/06/06 08:22:40;;;;;;;10.57;3.10;;;14.10;99.90;;;;;;5069640;28;20176;-65
2023/06/06 08:25:07;;;;;;;12.00;3.38;;;14.20;99.90;;;;;;5071047;28;20199;-66
2023/06/06 08:27:34;;;;;;;7.50;3.10;;;14.20;99.90;;;;;;5070789;28;20709;-67
2023/06/06 08:30:00;;;;;;;5.82;3.22;;;14.20;99.90;;;;;;5070711;28;20176;-66
2023/06/06 08:32:26;;;;;;;5.00;3.55;;;14.30;99.90;;;;;;5071210;28;20180;-64
2023/06/06 08:34:53;;;;;;;9.88;3.60;;;14.20;99.90;;;;;;5071025;28;20286;-66
2023/06/06 08:37:19;;;;;;;9.18;3.88;;;14.20;99.90;;;;;;5070570;28;20229;-63
2023/06/06 08:39:45;;;;;;;12.07;3.78;;;14.20;99.90;;;;;;5070438;28;20738;-63
2023/06/06 08:42:13;;;;;;;6.85;3.67;;;14.30;99.90;;;;;;5054899;28;20192;-62
2023/06/06 08:44:41;;;;;;;11.23;3.60;;;14.30;99.90;;;;;;5050383;28;20177;-62
2023/06/06 08:47:09;;;;;;;9.93;3.30;;;14.20;99.90;;;;;;5054186;28;20280;-63
2023/06/06 08:49:37;;;;;;;5.65;3.70;;;14.40;99.90;;;;;;5054007;28;20632;-62
2023/06/06 08:52:05;;;;;;;9.57;3.92;;;14.40;99.90;;;;;;5035965;28;20174;-63
2023/06/06 08:54:32;;;;;;;9.50;3.53;;;14.30;99.90;;;;;;5057545;28;20185;-62
2023/06/06 08:57:07;;;;;;;5.78;3.83;;;14.30;99.90;;;;;;5071990;28;20173;-64
2023/06/06 08:59:37;;;;;;;10.75;3.90;;;14.20;99.90;;;;;;5074003;28;20251;-64
2023/06/06 09:02:05;;;;;;;8.80;3.95;;;14.20;99.90;;;;;;5059979;28;20181;-65
2023/06/06 09:04:34;;;;;;;9.27;4.22;;;14.10;99.90;;;;;;5054234;28;20192;-64
2023/06/06 09:07:08;;;;;;;7.28;4.00;;;14.30;99.90;;;;;;5054661;28;20255;-68
2023/06/06 09:09:36;;;;;;;7.97;3.90;;;14.30;99.90;;;;;;5054391;28;20533;-66
2023/06/06 09:12:02;;;;;;;6.85;4.03;;;14.50;99.90;;;;;;5053982;28;20264;-67
2023/06/06 09:14:28;;;;;;;7.68;3.70;;;14.60;99.90;;;;;;5053594;28;20260;-67
2023/06/06 09:16:53;;;;;;;8.38;4.00;;;14.60;99.90;;;;;;5053816;28;20611;-66
2023/06/06 09:19:27;;;;;;;10.07;3.83;;;14.60;99.90;;;;;;5053694;28;20175;-64
2023/06/06 09:21:53;;;;;;;9.82;3.63;;;14.70;99.90;;;;;;5053733;28;20256;-67
2023/06/06 09:24:19;;;;;;;6.68;3.50;;;14.70;99.90;;;;;;5053545;28;20165;-66
2023/06/06 09:26:45;;;;;;;8.88;3.83;;;14.80;99.90;;;;;;5053346;28;20583;-66
2023/06/06 09:29:13;;;;;;;12.05;3.80;;;14.70;99.90;;;;;;5053307;28;20628;-67
2023/06/06 09:31:40;;;;;;;8.93;3.70;;;14.60;99.90;;;;;;5059293;28;20204;-67
2023/06/06 09:34:10;;;;;;;9.13;3.67;;;14.60;99.90;;;;;;5054470;28;20176;-66
2023/06/06 09:36:41;;;;;;;9.57;4.25;;;14.50;99.90;;;;;;5056223;28;20653;-66
2023/06/06 09:39:12;;;;;;;5.85;3.38;;;14.60;99.90;;;;;;5053174;28;20201;-66
2023/06/06 09:41:43;;;;;;;7.32;3.90;;;14.80;99.90;;;;;;5052788;28;20197;-66
2023/06/06 09:44:24;;;;;;;6.15;3.80;;;14.80;99.90;;;;;;5056397;28;20556;-66
2023/06/06 09:46:57;;;;;;;9.20;3.80;;;14.80;99.90;;;;;;5053472;28;20216;-67
2023/06/06 09:49:23;;;;;;;8.32;3.65;;;14.50;99.90;;;;;;5064054;28;20214;-66
2023/06/06 09:51:53;;;;;;;6.53;3.33;;;14.50;99.90;;;;;;5043281;28;20260;-65
2023/06/06 09:54:21;;;;;;;5.80;3.80;;;14.60;99.90;;;;;;5077999;28;20176;-65
2023/06/06 09:56:47;;;;;;;5.22;3.42;;;14.80;99.90;;;;;;5059196;28;20258;-65
2023/06/06 09:59:14;;;;;;;7.28;3.50;;;14.70;99.90;;;;;;5055807;28;20201;-65
2023/06/06 10:01:42;;;;;;;11.90;4.80;;;15.00;99.90;;;;;;5065001;28;20242;-66
2023/06/06 10:04:09;;;;;;;7.25;3.78;;;15.20;99.90;;;;;;5072363;28;20208;-65
2023/06/06 10:06:37;;;;;;;8.43;4.32;;;15.10;99.90;;;;;;5052783;28;20304;-67
2023/06/06 10:09:05;;;;;;;8.68;3.90;;;15.00;99.90;;;;;;5053436;28;20564;-66
2023/06/06 10:11:36;;;;;;;11.13;4.10;;;14.70;99.90;;;;;;5056654;28;20260;-66
2023/06/06 10:14:05;;;;;;;10.30;3.92;;;14.90;99.90;;;;;;5066789;28;20267;-66
2023/06/06 10:16:34;;;;;;;7.90;4.00;;;15.00;99.90;;;;;;5061375;28;20256;-65
2023/06/06 10:19:00;;;;;;;8.40;3.63;;;13.70;99.90;;;;;;5053127;28;20181;-65
2023/06/06 10:21:28;;;;;;;10.52;4.15;;;14.90;99.90;;;;;;5064481;28;20164;-66
2023/06/06 10:23:54;;;;;;;14.40;4.40;;;14.90;99.90;;;;;;5072718;28;20259;-65
2023/06/06 10:26:50;;;;;;;9.63;4.97;;;14.90;99.90;;;;;;5072714;28;20292;-66
2023/06/06 10:29:54;;;;;;;8.77;4.38;;;14.90;99.90;;;;;;5072281;28;20267;-66
2023/06/06 10:32:38;;;;;;;12.35;4.30;;;15.10;99.90;;;;;;5072258;28;20639;-66
2023/06/06 10:35:07;;;;;;;8.52;4.63;;;15.30;99.90;;;;;;5056178;28;20224;-66
2023/06/06 10:37:35;;;;;;;9.00;4.60;;;15.20;99.90;;;;;;5072221;28;20543;-65
2023/06/06 10:40:09;;;;;;;8.00;4.53;;;15.30;99.90;;;;;;5070103;28;20553;-65
2023/06/06 10:42:40;;;;;;;5.15;3.70;;;15.30;99.90;;;;;;5065081;28;20180;-66
2023/06/06 10:45:07;;;;;;;17.15;6.50;;;15.30;99.90;;;;;;5054735;28;20568;-65
2023/06/06 10:47:37;;;;;;;14.80;7.57;;;15.50;99.90;;;;;;5052513;28;20663;-66
2023/06/06 10:50:10;;;;;;;17.85;7.90;;;15.70;99.90;;;;;;5058867;28;20177;-64
2023/06/06 10:52:59;;;;;;;7.50;4.25;;;15.70;99.90;;;;;;5059262;28;20178;-65
2023/06/06 10:55:25;;;;;;;6.65;3.40;;;15.50;99.90;;;;;;5062282;28;20168;-67
2023/06/06 10:58:07;;;;;;;8.20;5.05;;;15.60;99.90;;;;;;5080362;28;20169;-66
2023/06/06 11:00:34;;;;;;;10.02;5.60;;;15.70;99.90;;;;;;5052810;28;20168;-66
2023/06/06 11:03:15;;;;;;;14.38;6.13;;;15.70;99.90;;;;;;5055602;28;20672;-66
2023/06/06 11:05:59;;;;;;;7.53;3.92;;;15.80;99.90;;;;;;5052048;28;20196;-65
2023/06/06 11:08:44;;;;;;;14.70;4.03;;;15.90;99.90;;;;;;5033920;28;20176;-66
2023/06/06 11:11:20;;;;;;;6.72;3.45;;;15.70;99.90;;;;;;5044182;28;20208;-66
2023/06/06 11:13:49;;;;;;;5.90;3.50;;;15.80;99.90;;;;;;5073288;28;20429;-66
2023/06/06 11:16:15;;;;;;;8.18;3.90;;;16.00;99.90;;;;;;5053904;28;20186;-64
2023/06/06 11:18:42;;;;;;;4.60;3.20;;;15.90;99.90;;;;;;5071267;28;20273;-64
2023/06/06 11:21:07;;;;;;;5.65;3.78;;;15.80;99.90;;;;;;5071133;28;20204;-63
2023/06/06 11:23:42;;;;;;;11.23;4.50;;;16.00;99.90;;;;;;5071060;28;20169;-63
2023/06/06 11:26:09;;;;;;;8.35;4.70;;;16.10;99.90;;;;;;5053470;28;20603;-64
2023/06/06 11:28:36;;;;;;;8.38;4.78;;;16.10;99.90;;;;;;5061122;28;20267;-65
2023/06/06 11:31:03;;;;;;;9.90;5.57;;;16.20;99.90;;;;;;5051402;28;20208;-64
2023/06/06 11:33:28;;;;;;;9.50;5.25;;;16.20;99.90;;;;;;5044257;28;20185;-66
2023/06/06 11:35:55;;;;;;;10.38;5.30;;;16.20;99.90;;;;;;5054347;28;20221;-64
2023/06/06 11:38:21;;;;;;;7.47;4.18;;;16.20;99.90;;;;;;5032807;28;20181;-65
2023/06/06 11:40:48;;;;;;;12.35;5.10;;;16.30;99.90;;;;;;5051194;28;20274;-65
2023/06/06 11:43:14;;;;;;;11.85;5.78;;;16.50;99.90;;;;;;5016682;28;20204;-64
2023/06/06 11:45:40;;;;;;;10.48;5.20;;;16.60;99.90;;;;;;5054778;28;20165;-64
2023/06/06 11:48:22;;;;;;;8.93;5.30;;;16.70;99.90;;;;;;5066746;28;20191;-65
2023/06/06 11:50:49;;;;;;;14.45;6.65;;;16.70;99.90;;;;;;5071375;28;20164;-64
2023/06/06 11:53:30;;;;;;;9.90;5.32;;;17.00;99.90;;;;;;5055633;28;20253;-64
2023/06/06 11:55:56;;;;;;;7.18;3.58;;;17.30;99.90;;;;;;5061559;28;20676;-64
2023/06/06 11:58:23;;;;;;;11.60;5.63;;;17.20;99.90;;;;;;5064325;28;20520;-64
2023/06/06 12:00:55;;;;;;;11.27;6.05;;;17.30;99.90;;;;;;5054523;28;20188;-63
2023/06/06 12:03:21;;;;;;;11.38;5.18;;;17.30;99.90;;;;;;5042068;28;20267;-64
2023/06/06 12:06:00;;;;;;;7.65;3.35;;;17.20;99.90;;;;;;5070737;28;20180;-64
2023/06/06 12:08:26;;;;;;;6.47;3.22;;;17.20;99.90;;;;;;5061250;28;20238;-64
2023/06/06 12:10:52;;;;;;;7.90;3.45;;;17.00;99.90;;;;;;5063747;28;20639;-64
2023/06/06 12:13:33;;;;;;;9.43;3.80;;;17.00;99.90;;;;;;5057783;28;20184;-63
2023/06/06 12:15:59;;;;;;;8.27;4.53;;;17.30;99.90;;;;;;5053323;28;20204;-65
2023/06/06 12:18:25;;;;;;;10.50;5.20;;;17.40;99.90;;;;;;5057203;28;20258;-65
2023/06/06 12:20:52;;;;;;;9.57;4.47;;;17.50;99.90;;;;;;5059359;28;20173;-65
2023/06/06 12:23:30;;;;;;;6.80;3.92;;;17.50;99.90;;;;;;5055609;28;20185;-65
2023/06/06 12:25:57;;;;;;;10.25;4.43;;;17.40;99.90;;;;;;5058317;28;20736;-62
2023/06/06 12:28:26;;;;;;;6.60;3.78;;;17.60;99.90;;;;;;5057569;28;20185;-62
2023/06/06 12:30:52;;;;;;;10.63;4.03;;;17.50;99.90;;;;;;5057612;28;20538;-64
2023/06/06 12:33:19;;;;;;;6.63;3.53;;;17.60;99.90;;;;;;5062536;28;20188;-64
2023/06/06 12:35:45;;;;;;;6.60;3.45;;;17.90;99.90;;;;;;5058974;28;20598;-63
2023/06/06 12:38:21;;;;;;;7.40;3.60;;;17.80;99.90;;;;;;5061040;28;20264;-63
2023/06/06 12:40:56;;;;;;;6.22;3.50;;;17.70;99.90;;;;;;5064902;28;20179;-63
2023/06/06 12:43:22;;;;;;;7.95;3.67;;;17.70;99.90;;;;;;5069566;28;20180;-63
2023/06/06 12:45:48;;;;;;;5.10;3.28;;;;;;;;;;5063053;28;20284;-64
2023/06/06 12:48:15;;;;;;;6.03;4.15;;;17.60;99.90;;;;;;5059337;28;20185;-63